AirNav   Pilot Hours Calculator
 
 1649 users online  

NH04 Ciardelli Field Heliport
Milford, New Hampshire, USA


FAA INFORMATION EFFECTIVE 02 JANUARY 2020

Location

FAA Identifier: NH04
Lat/Long: 42-48-20.8700N 071-37-07.6700W
42-48.347833N 071-37.127833W
42.8057972,-71.6187972
(estimated)
Elevation: 458 ft. / 140 m (estimated)
From city: 2 miles SE of MILFORD, NH
Time zone: UTC -5 (UTC -4 during Daylight Saving Time)
Zip code: 03055

Heliport Operations

Heliport use: Private use. Permission required prior to landing
Activation date: 03/2018
Control tower: no
ARTCC: BOSTON CENTER
FSS: BANGOR FLIGHT SERVICE STATION
Attendance: 
Wind indicator: no
Segmented circle: no

Heliport Communications

WX AWOS-3PT at ASH (5 nm E): 125.1 (603-578-0473)
WX ASOS at MHT (11 nm NE): 119.55 (603-621-1766)
WX ASOS at FIT (16 nm S): 135.175 (978-343-9121)
WX ASOS at AFN (17 nm W): 135.875 (603-532-6195)

Nearby radio navigation aids

VOR radial/distance  VOR name  Freq  Var
MHTr266/11.6MANCHESTER VOR/DME114.4015W
LWMr295/23.4LAWRENCE VOR/DME112.5015W
GDMr065/24.9GARDNER VOR/DME110.6014W
CONr199/24.9CONCORD VOR/DME112.9015W
EENr103/29.6KEENE VORTAC109.4014W
PSMr260/38.4PEASE VOR/DME116.5016W
BOSr330/38.7BOSTON VOR/DME112.7016W

 
NDB name  Hdg/Dist  Freq  Var  ID
FITZY243/5.320915WMJ -- .---

Heliport Services

Runway Information

Helipad H1

Dimensions: 40 x 40 ft. / 12 x 12 m
Surface: turf
Latitude: 42-48.347833N
Longitude: 071-37.127833W
Elevation: 458.0 ft.
Traffic pattern: leftleft

Heliport Ownership and Management from official FAA records

Ownership: Privately-owned
Owner: ANDREW CIARDELLI
29 WYMAN LANE
MILFORD, NH 03055
Phone 603-759-2956
Manager: ANDREW CIARDELLI
29 WYMAN LANE
MILFORD, NH 03055
Phone 603-759-2956

Additional Remarks

FOR CD CTC BOSTON APCH AT 603-594-5551.

Instrument Procedures

There are no published instrument procedures at NH04.

Some nearby airports with instrument procedures:

KASH - Boire Field Airport (5 nm E)
KMHT - Manchester Airport (11 nm NE)
KFIT - Fitchburg Municipal Airport (16 nm S)
KAFN - Jaffrey Airport-Silver Ranch (17 nm W)
6B6 - Minute Man Air Field (21 nm S)
 
Loc | Ops | Rwys | IFR | FBO | Links
Com | Nav | Svcs | Stats | Notes
Aerial photo
No photo
 
Airport distance calculator
Flying to Ciardelli Field Heliport? Find the distance to fly.

From to NH04

Sunrise and sunset
Times for 22-Jan-2020
 Local
(UTC-5)
 Zulu
(UTC)
Morning civil twilight06:4011:40
Sunrise07:1112:11
Sunset16:4521:45
Evening civil twilight17:1622:16

Current date and time
Zulu (UTC)  22-Jan-2020 20:00:46
Local (UTC-5)  22-Jan-2020 15:00:46
 
METAR
KASH 
5nm SE 
221856Z 00000KT 10SM CLR 02/M09 A3037 RMK AO2 SLP292 T00171089
KMHT 
11nm NE 
221953Z 00000KT 10SM SCT250 03/M09 A3035 RMK AO2 SLP298 T00281089
KFIT 
16nm S 
221952Z AUTO 29004KT 10SM CLR 02/M09 A3037 RMK AO2 SLP289 T00221094
KAFN 
17nm W 
221952Z AUTO 22005KT 10SM CLR 01/M10 A3032 RMK AO2 SLP291 T00061100
TAF
KMHT 
11nm NE 
221720Z 2218/2318 VRB03KT P6SM SCT250
NOTAMs
Click for the latest NOTAMs
NOTAMs are issued by the DoD/FAA and will open in a separate window not controlled by AirNav.

 

 
 

Would you like to see your business listed on this page?

 If your business provides an interesting product or service to pilots, flight crews, aircraft, or users of the Ciardelli Field Heliport, you should consider listing it here.  To start the listing process, click on the button below
 
Add a business
 

Other Pages about Ciardelli Field Heliport

Update a link
 
Copyright © AirNav, LLC. All rights reserved. Privacy Policy  Contact